Time;durP1;ratioP1;P1;durP2;ratioP2;P2;SDS_P1;SDS_P2;PMS_P1;PMS_P2;Temp;Humidity;BMP_temperature;BMP_pressure;BME280_temperature;BME280_humidity;BME280_pressure;Samples;Min_cycle;Max_cycle;Signal;HPM_P1;HPM_P2
2022/06/07 00:00:47;;;;;;;3.50;1.70;;;20.40;63.80;;;;;;4431687;32;20082;-67
2022/06/07 00:03:13;;;;;;;3.22;1.40;;;20.40;63.90;;;;;;4432154;32;20129;-67
2022/06/07 00:05:43;;;;;;;2.63;1.40;;;20.40;63.90;;;;;;4431907;32;20082;-67
2022/06/07 00:08:10;;;;;;;3.33;1.75;;;20.40;63.90;;;;;;4431842;32;20074;-67
2022/06/07 00:10:37;;;;;;;3.10;1.50;;;20.30;63.80;;;;;;4431936;32;20152;-67
2022/06/07 00:13:03;;;;;;;2.53;1.55;;;20.40;63.80;;;;;;4432096;32;20102;-67
2022/06/07 00:15:29;;;;;;;2.05;1.30;;;20.40;63.80;;;;;;4431942;32;20066;-67
2022/06/07 00:17:55;;;;;;;5.72;1.58;;;20.30;63.80;;;;;;4431712;32;20062;-67
2022/06/07 00:20:21;;;;;;;2.72;1.65;;;20.30;63.80;;;;;;4431432;32;20063;-67
2022/06/07 00:22:47;;;;;;;1.80;1.13;;;20.30;63.70;;;;;;4431667;32;20211;-67
2022/06/07 00:25:15;;;;;;;3.00;1.50;;;20.30;63.70;;;;;;4431656;32;20114;-67
2022/06/07 00:27:42;;;;;;;2.60;1.50;;;20.30;63.70;;;;;;4431612;32;20508;-67
2022/06/07 00:30:09;;;;;;;3.05;1.40;;;20.30;63.70;;;;;;4431579;32;20078;-67
2022/06/07 00:32:35;;;;;;;3.95;1.60;;;20.30;63.70;;;;;;4431481;32;20208;-67
2022/06/07 00:35:02;;;;;;;2.67;1.45;;;20.30;63.70;;;;;;4431677;32;20204;-68
2022/06/07 00:37:27;;;;;;;2.58;1.30;;;20.30;63.60;;;;;;4431201;32;20086;-67
2022/06/07 00:39:53;;;;;;;2.50;1.27;;;20.30;63.70;;;;;;4431692;32;20621;-67
2022/06/07 00:42:19;;;;;;;2.88;1.50;;;20.30;63.60;;;;;;4431074;32;20063;-67
2022/06/07 00:44:46;;;;;;;3.30;1.27;;;20.30;63.60;;;;;;4431363;32;20070;-67
2022/06/07 00:47:23;;;;;;;2.90;1.58;;;20.30;63.60;;;;;;4431280;32;20220;-67
2022/06/07 00:50:16;;;;;;;2.55;1.38;;;20.30;63.60;;;;;;4431314;32;20164;-67
2022/06/07 00:52:42;;;;;;;2.08;1.38;;;20.30;63.60;;;;;;4430922;32;20291;-67
2022/06/07 00:55:09;;;;;;;2.90;1.30;;;20.20;63.60;;;;;;4431200;32;20540;-67
2022/06/07 00:57:36;;;;;;;2.30;1.50;;;20.30;63.60;;;;;;4431171;32;20079;-67
2022/06/07 01:00:05;;;;;;;3.05;1.60;;;20.30;63.60;;;;;;4430854;32;20086;-67
2022/06/07 01:02:31;;;;;;;3.08;1.40;;;20.30;63.60;;;;;;4431100;32;20078;-67
2022/06/07 01:05:01;;;;;;;2.22;1.60;;;20.20;63.50;;;;;;4430990;32;20085;-67
2022/06/07 01:12:56;;;;;;;3.45;1.38;;;20.20;63.50;;;;;;4431032;32;20519;-67
2022/06/07 01:15:22;;;;;;;3.17;1.48;;;20.20;63.50;;;;;;4430858;32;20129;-67
2022/06/07 01:17:48;;;;;;;1.83;1.10;;;20.20;63.50;;;;;;4431061;32;20062;-67
2022/06/07 01:20:14;;;;;;;2.38;1.15;;;20.20;63.50;;;;;;4430242;32;20413;-67
2022/06/07 01:22:40;;;;;;;2.42;1.40;;;20.20;63.50;;;;;;4430767;32;20063;-67
2022/06/07 01:25:06;;;;;;;2.45;1.38;;;20.20;63.50;;;;;;4430551;32;20132;-68
2022/06/07 01:27:32;;;;;;;2.38;1.40;;;20.20;63.50;;;;;;4430794;32;20495;-67
2022/06/07 01:29:58;;;;;;;2.28;1.60;;;20.20;63.50;;;;;;4430464;32;20070;-67
2022/06/07 01:32:25;;;;;;;2.17;1.40;;;20.20;63.50;;;;;;4417176;32;20514;-67
2022/06/07 01:34:51;;;;;;;2.80;1.20;;;20.20;63.50;;;;;;4430778;32;20071;-67
2022/06/07 01:37:18;;;;;;;3.55;1.60;;;20.20;63.50;;;;;;4430533;32;20074;-67
2022/06/07 01:42:28;;;;;;;2.22;1.30;;;20.20;63.50;;;;;;4430631;32;20496;-67
2022/06/07 01:44:54;;;;;;;2.08;1.40;;;20.10;63.50;;;;;;4430185;32;20101;-67
2022/06/07 01:47:23;;;;;;;1.73;1.23;;;20.20;63.50;;;;;;4430129;32;20066;-67
2022/06/07 01:49:50;;;;;;;2.28;1.40;;;20.10;63.40;;;;;;4430311;32;20508;-67
2022/06/07 01:52:19;;;;;;;1.42;1.33;;;20.10;63.40;;;;;;4430635;32;20216;-67
2022/06/07 01:54:46;;;;;;;3.03;1.65;;;20.10;63.40;;;;;;4430766;32;20092;-67
2022/06/07 01:57:13;;;;;;;2.08;1.30;;;20.10;63.40;;;;;;4430229;32;20291;-67
2022/06/07 01:59:39;;;;;;;2.60;1.25;;;20.10;63.50;;;;;;4430254;32;20121;-67
2022/06/07 02:02:06;;;;;;;2.15;1.30;;;20.10;63.40;;;;;;4430241;32;20149;-67
2022/06/07 02:04:34;;;;;;;2.63;1.20;;;20.10;63.40;;;;;;4429555;32;20168;-67
2022/06/07 02:07:00;;;;;;;2.42;1.30;;;20.10;63.40;;;;;;4430121;32;20228;-67
2022/06/07 02:09:26;;;;;;;3.03;1.30;;;20.10;63.40;;;;;;4416395;32;20076;-67
2022/06/07 02:11:52;;;;;;;3.35;1.25;;;20.10;63.40;;;;;;4430440;32;20172;-68
2022/06/07 02:14:18;;;;;;;1.92;1.20;;;20.10;63.40;;;;;;4431810;32;20059;-68
2022/06/07 02:16:44;;;;;;;2.10;1.27;;;20.10;63.40;;;;;;4416576;32;20244;-68
2022/06/07 02:19:11;;;;;;;5.70;1.70;;;20.10;63.40;;;;;;4429484;32;20393;-73
2022/06/07 02:21:38;;;;;;;1.10;0.98;;;20.10;63.40;;;;;;4430197;32;20416;-68
2022/06/07 02:24:05;;;;;;;2.50;1.45;;;20.10;63.40;;;;;;4430116;32;20125;-68
2022/06/07 02:26:34;;;;;;;2.53;1.60;;;20.10;63.40;;;;;;4430178;32;20488;-69
2022/06/07 02:29:22;;;;;;;2.25;1.48;;;20.10;63.30;;;;;;4429888;32;20085;-68
2022/06/07 02:32:03;;;;;;;2.47;1.35;;;20.10;63.40;;;;;;4429778;32;20089;-68
2022/06/07 02:34:29;;;;;;;1.20;1.10;;;20.10;63.40;;;;;;4430241;32;20059;-68
2022/06/07 02:37:01;;;;;;;1.50;1.15;;;20.10;63.40;;;;;;4429520;32;20121;-68
2022/06/07 02:39:28;;;;;;;2.80;1.52;;;20.10;63.40;;;;;;4430052;32;20094;-69
2022/06/07 02:41:54;;;;;;;2.78;1.30;;;20.10;63.40;;;;;;4429713;32;20093;-69
2022/06/07 02:44:21;;;;;;;2.15;1.38;;;20.10;63.40;;;;;;4429304;32;20440;-69
2022/06/07 02:46:47;;;;;;;2.80;1.40;;;20.00;63.40;;;;;;4429845;32;20093;-68
2022/06/07 02:49:12;;;;;;;2.58;1.48;;;20.00;64.20;;;;;;4429645;32;20067;-74
2022/06/07 02:51:38;;;;;;;2.92;1.40;;;20.00;64.20;;;;;;4429649;32;20094;-69
2022/06/07 02:54:04;;;;;;;1.73;1.27;;;20.00;63.30;;;;;;4429692;32;20079;-68
2022/06/07 02:56:31;;;;;;;1.30;1.17;;;20.00;63.40;;;;;;4429555;32;20075;-69
2022/06/07 02:58:57;;;;;;;1.92;1.40;;;20.00;63.30;;;;;;4429869;32;20397;-69
2022/06/07 03:01:23;;;;;;;2.45;1.20;;;20.00;63.40;;;;;;4429567;32;20220;-68
2022/06/07 03:03:48;;;;;;;1.58;1.02;;;20.00;63.30;;;;;;4429569;32;20078;-68
2022/06/07 03:06:14;;;;;;;2.60;1.38;;;20.00;63.40;;;;;;4429558;32;20487;-68
2022/06/07 03:08:40;;;;;;;2.03;1.38;;;20.00;63.30;;;;;;4429578;32;20080;-68
2022/06/07 03:11:06;;;;;;;1.48;1.15;;;20.00;63.40;;;;;;4429539;32;20161;-69
2022/06/07 03:13:31;;;;;;;2.03;1.20;;;20.00;63.40;;;;;;4429559;32;20196;-68
2022/06/07 03:15:57;;;;;;;1.85;1.42;;;20.00;63.40;;;;;;4430627;32;20082;-69
2022/06/07 03:18:23;;;;;;;1.88;1.27;;;20.00;63.40;;;;;;4432616;32;20106;-68
2022/06/07 03:20:51;;;;;;;2.72;1.42;;;20.00;63.40;;;;;;4432338;32;20094;-69
2022/06/07 03:23:17;;;;;;;2.80;1.60;;;20.00;63.40;;;;;;4432530;32;20074;-69
2022/06/07 03:25:43;;;;;;;1.67;1.13;;;20.00;63.40;;;;;;4418447;32;20071;-68
2022/06/07 03:28:09;;;;;;;2.63;1.38;;;20.00;63.40;;;;;;4432428;32;20089;-69
2022/06/07 03:30:35;;;;;;;2.53;1.42;;;20.00;63.40;;;;;;4432425;32;20228;-68
2022/06/07 03:33:01;;;;;;;2.40;1.40;;;20.00;63.40;;;;;;4432652;32;20063;-69
2022/06/07 03:35:27;;;;;;;3.63;1.67;;;20.00;63.40;;;;;;4432002;32;20365;-68
2022/06/07 03:37:53;;;;;;;1.85;1.58;;;20.00;63.40;;;;;;4432296;32;20086;-69
2022/06/07 03:40:43;;;;;;;2.22;1.20;;;19.90;63.40;;;;;;4432558;32;20362;-69
2022/06/07 03:43:05;;;;;;;1.80;1.33;;;19.90;63.40;;;;;;4431984;32;20094;-69
2022/06/07 03:45:31;;;;;;;2.22;1.45;;;19.90;63.30;;;;;;4432180;32;20217;-68
2022/06/07 03:47:57;;;;;;;2.08;1.30;;;19.90;63.40;;;;;;4432144;32;20125;-69
2022/06/07 03:50:24;;;;;;;1.88;1.38;;;19.90;63.30;;;;;;4432048;32;20105;-68
2022/06/07 03:52:49;;;;;;;1.63;1.30;;;19.90;63.30;;;;;;4431854;32;20205;-69
2022/06/07 03:55:15;;;;;;;1.58;1.42;;;19.90;63.30;;;;;;4418291;32;20071;-69
2022/06/07 03:57:42;;;;;;;2.13;1.25;;;19.90;63.30;;;;;;4432071;32;20090;-68
2022/06/07 04:00:09;;;;;;;2.08;1.50;;;19.90;63.30;;;;;;4431995;32;20101;-69
2022/06/07 04:02:35;;;;;;;2.03;1.30;;;19.90;63.30;;;;;;4432188;32;20256;-68
2022/06/07 04:05:00;;;;;;;2.17;1.30;;;19.90;63.30;;;;;;4431925;32;20463;-69
2022/06/07 04:10:12;;;;;;;2.17;1.40;;;19.90;63.30;;;;;;4432257;32;20167;-68
2022/06/07 04:12:38;;;;;;;2.15;1.40;;;19.90;63.30;;;;;;4431802;32;20078;-68
2022/06/07 04:15:06;;;;;;;2.08;1.35;;;19.90;63.30;;;;;;4431639;32;20078;-69
2022/06/07 04:17:31;;;;;;;2.50;1.48;;;19.90;63.30;;;;;;4431763;32;20082;-71
2022/06/07 04:19:57;;;;;;;2.33;1.38;;;19.90;63.30;;;;;;4431325;32;20122;-69
2022/06/07 04:22:24;;;;;;;1.80;1.33;;;19.90;64.30;;;;;;4431975;32;20062;-69
2022/06/07 04:24:50;;;;;;;2.78;1.60;;;19.90;63.30;;;;;;4431978;32;20097;-69
2022/06/07 04:27:16;;;;;;;2.08;1.40;;;19.90;63.30;;;;;;4431095;32;20083;-68
2022/06/07 04:29:42;;;;;;;2.72;1.50;;;19.90;63.30;;;;;;4431847;32;20070;-69
2022/06/07 04:32:08;;;;;;;2.45;1.50;;;19.80;63.30;;;;;;4431484;32;20066;-68
2022/06/07 04:34:34;;;;;;;2.28;1.23;;;19.90;63.30;;;;;;4431260;32;20236;-69
2022/06/07 04:37:00;;;;;;;2.10;1.20;;;19.90;63.30;;;;;;4431382;32;20160;-69
2022/06/07 04:39:25;;;;;;;2.35;1.35;;;19.80;63.30;;;;;;4431399;32;20132;-68
2022/06/07 04:41:51;;;;;;;1.95;1.40;;;19.80;63.20;;;;;;4431570;32;20063;-68
2022/06/07 04:44:17;;;;;;;1.48;1.05;;;19.80;63.30;;;;;;4431503;32;20071;-69
2022/06/07 04:46:43;;;;;;;3.22;1.55;;;19.80;63.20;;;;;;4431363;32;20093;-68
2022/06/07 04:49:09;;;;;;;2.17;1.40;;;19.80;63.30;;;;;;4430994;32;20216;-69
2022/06/07 04:51:36;;;;;;;2.15;1.40;;;19.80;63.30;;;;;;4431385;32;20109;-68
2022/06/07 04:54:03;;;;;;;1.10;1.00;;;19.80;63.30;;;;;;4430907;32;20086;-69
2022/06/07 04:56:32;;;;;;;1.35;1.17;;;19.80;63.20;;;;;;4431103;32;20095;-67
2022/06/07 04:59:00;;;;;;;1.52;1.10;;;19.80;63.20;;;;;;4430878;32;20101;-69
2022/06/07 05:01:32;;;;;;;4.38;1.40;;;19.80;63.30;;;;;;4431117;32;20526;-68
2022/06/07 05:03:58;;;;;;;2.17;1.30;;;19.80;63.20;;;;;;4431043;32;20074;-69
2022/06/07 05:06:33;;;;;;;2.08;1.45;;;19.80;63.30;;;;;;4430681;32;20554;-69
2022/06/07 05:09:06;;;;;;;1.70;1.27;;;19.80;63.20;;;;;;4431290;32;20133;-69
2022/06/07 05:11:32;;;;;;;2.17;1.27;;;19.80;63.30;;;;;;4431969;32;20145;-70
2022/06/07 05:14:02;;;;;;;2.63;1.38;;;19.80;63.30;;;;;;4416631;32;20177;-71
2022/06/07 05:16:27;;;;;;;3.35;1.45;;;19.80;63.20;;;;;;4430626;32;20539;-70
2022/06/07 05:18:55;;;;;;;1.67;1.30;;;19.80;63.30;;;;;;4430573;32;20075;-70
2022/06/07 05:21:23;;;;;;;1.95;1.40;;;19.80;63.20;;;;;;4430898;32;20516;-70
2022/06/07 05:23:49;;;;;;;3.42;1.40;;;19.80;63.30;;;;;;4417169;32;20082;-71
2022/06/07 05:26:22;;;;;;;2.50;1.30;;;19.80;63.30;;;;;;4430341;32;20093;-71
2022/06/07 05:28:47;;;;;;;1.95;1.42;;;19.80;63.20;;;;;;4430707;32;20090;-72
2022/06/07 05:31:13;;;;;;;2.53;1.58;;;19.80;63.30;;;;;;4430566;32;20074;-70
2022/06/07 05:33:39;;;;;;;1.67;1.20;;;19.80;63.30;;;;;;4430788;32;20070;-69
2022/06/07 05:36:06;;;;;;;2.33;1.20;;;19.80;63.30;;;;;;4430324;32;20142;-70
2022/06/07 05:38:32;;;;;;;2.45;1.40;;;19.80;63.30;;;;;;4430337;32;20070;-70
2022/06/07 05:40:58;;;;;;;4.00;1.50;;;19.80;63.20;;;;;;4430393;32;20444;-70
2022/06/07 05:43:24;;;;;;;1.80;1.35;;;19.70;63.20;;;;;;4430643;32;20113;-70
2022/06/07 05:45:52;;;;;;;1.38;1.10;;;19.80;63.20;;;;;;4430504;32;20085;-70
2022/06/07 05:48:18;;;;;;;2.65;1.45;;;19.80;63.20;;;;;;4430509;32;20090;-69
2022/06/07 05:50:48;;;;;;;1.70;1.30;;;19.80;63.30;;;;;;4429884;32;20098;-71
2022/06/07 05:53:14;;;;;;;1.90;1.20;;;19.70;63.20;;;;;;4430533;32;20137;-70
2022/06/07 05:55:41;;;;;;;2.85;1.50;;;19.80;63.30;;;;;;4430108;32;20067;-70
2022/06/07 05:58:07;;;;;;;1.48;1.20;;;19.70;63.20;;;;;;4430143;32;20444;-70
2022/06/07 06:00:40;;;;;;;2.25;1.25;;;19.70;63.20;;;;;;4430453;32;20090;-70
2022/06/07 06:03:06;;;;;;;1.77;1.20;;;19.70;63.20;;;;;;4430148;32;20071;-70
2022/06/07 06:05:33;;;;;;;2.10;1.38;;;19.70;63.30;;;;;;4430141;32;20077;-69
2022/06/07 06:10:44;;;;;;;2.40;1.15;;;19.70;63.20;;;;;;4430484;32;20090;-70
2022/06/07 06:13:10;;;;;;;1.95;1.25;;;19.70;63.20;;;;;;4430293;32;20157;-69
2022/06/07 06:15:36;;;;;;;1.60;1.23;;;19.70;63.20;;;;;;4416447;32;20077;-70
2022/06/07 06:18:03;;;;;;;1.80;1.27;;;19.70;63.20;;;;;;4416227;32;20630;-70
2022/06/07 06:20:29;;;;;;;1.50;1.40;;;19.70;63.20;;;;;;4430155;32;20130;-69
2022/06/07 06:22:55;;;;;;;1.40;1.10;;;19.70;63.20;;;;;;4416294;32;20272;-69
2022/06/07 06:25:21;;;;;;;1.30;1.10;;;19.70;63.10;;;;;;4429924;32;20412;-69
2022/06/07 06:27:46;;;;;;;1.85;1.20;;;19.70;63.20;;;;;;4430198;32;20480;-68
2022/06/07 06:30:13;;;;;;;1.67;1.10;;;19.70;63.20;;;;;;4429867;32;20475;-69
2022/06/07 06:32:39;;;;;;;1.40;1.00;;;19.70;63.30;;;;;;4430056;32;20098;-68
2022/06/07 06:35:05;;;;;;;3.15;1.13;;;19.70;63.30;;;;;;4416162;32;20172;-68
2022/06/07 06:37:31;;;;;;;2.83;1.23;;;19.70;64.10;;;;;;4429711;32;20082;-68
2022/06/07 06:39:57;;;;;;;2.40;1.30;;;19.70;63.20;;;;;;4429482;32;20101;-66
2022/06/07 06:42:23;;;;;;;2.10;1.10;;;19.70;63.40;;;;;;4430055;32;20143;-67
2022/06/07 06:44:49;;;;;;;3.70;1.42;;;19.70;63.50;;;;;;4429690;32;20066;-66
2022/06/07 06:47:15;;;;;;;2.35;1.10;;;19.70;63.60;;;;;;4429524;32;20548;-66
2022/06/07 06:49:41;;;;;;;2.45;1.35;;;19.70;63.50;;;;;;4429265;32;20132;-66
2022/06/07 06:52:10;;;;;;;4.55;1.20;;;19.70;63.50;;;;;;4429003;32;20526;-66
2022/06/07 06:54:38;;;;;;;3.53;1.10;;;19.70;63.50;;;;;;4429174;32;20538;-66
2022/06/07 06:57:04;;;;;;;2.50;1.00;;;19.70;63.50;;;;;;4429544;32;20089;-67
2022/06/07 06:59:31;;;;;;;3.97;1.20;;;19.70;63.50;;;;;;4429472;32;20093;-66
2022/06/07 07:01:58;;;;;;;3.78;1.17;;;19.70;63.60;;;;;;4429517;32;20082;-66
2022/06/07 07:04:24;;;;;;;3.65;1.23;;;19.70;63.60;;;;;;4429710;32;20100;-66
2022/06/07 07:06:50;;;;;;;3.65;1.52;;;19.70;63.60;;;;;;4415757;32;20063;-66
2022/06/07 07:09:24;;;;;;;3.83;1.13;;;19.70;63.70;;;;;;4429695;32;20192;-67
2022/06/07 07:11:53;;;;;;;2.88;0.98;;;19.70;63.60;;;;;;4429459;32;20176;-67
2022/06/07 07:14:19;;;;;;;3.20;1.08;;;19.70;63.60;;;;;;4429474;32;20126;-66
2022/06/07 07:16:50;;;;;;;3.10;1.00;;;19.70;63.50;;;;;;4429060;32;20114;-66
2022/06/07 07:19:18;;;;;;;4.35;1.00;;;19.70;63.50;;;;;;4428994;32;20097;-66
2022/06/07 07:21:46;;;;;;;3.10;0.88;;;19.70;63.50;;;;;;4429621;32;20058;-66
2022/06/07 07:24:15;;;;;;;2.90;0.98;;;19.70;63.40;;;;;;4429178;32;20085;-66
2022/06/07 07:26:45;;;;;;;4.90;1.27;;;19.70;63.40;;;;;;4429641;32;20086;-66
2022/06/07 07:29:13;;;;;;;3.65;1.20;;;19.70;63.40;;;;;;4429703;32;20074;-66
2022/06/07 07:31:39;;;;;;;5.50;1.10;;;19.70;63.30;;;;;;4429338;32;20090;-66
2022/06/07 07:34:09;;;;;;;4.78;1.13;;;19.70;63.50;;;;;;4429314;32;20117;-66
2022/06/07 07:36:38;;;;;;;2.83;1.10;;;19.70;63.40;;;;;;4429002;32;20137;-66
2022/06/07 07:39:04;;;;;;;5.25;1.30;;;19.70;63.40;;;;;;4429046;32;20075;-66
2022/06/07 07:41:32;;;;;;;5.75;1.33;;;19.70;63.40;;;;;;4429292;32;20078;-66
2022/06/07 07:44:01;;;;;;;5.97;1.30;;;19.70;63.40;;;;;;4415726;32;20167;-67
2022/06/07 07:46:30;;;;;;;4.78;1.13;;;19.70;63.50;;;;;;4429318;32;20093;-67
2022/06/07 07:48:56;;;;;;;3.75;0.93;;;19.70;63.40;;;;;;4429127;32;20261;-67
2022/06/07 07:51:27;;;;;;;3.45;1.10;;;19.70;63.40;;;;;;4429102;32;20078;-68
2022/06/07 07:53:55;;;;;;;7.00;1.75;;;19.70;63.30;;;;;;4429304;32;20467;-68
2022/06/07 07:56:21;;;;;;;3.90;1.17;;;19.70;63.30;;;;;;4429319;32;20094;-68
2022/06/07 07:58:48;;;;;;;7.20;1.40;;;19.70;63.50;;;;;;4429349;32;20086;-68
2022/06/07 08:01:17;;;;;;;8.05;1.73;;;19.80;63.40;;;;;;4429248;32;20075;-69
2022/06/07 08:03:44;;;;;;;5.10;1.58;;;19.80;63.50;;;;;;4431320;32;20212;-67
2022/06/07 08:06:15;;;;;;;6.22;1.40;;;19.80;63.50;;;;;;4431731;32;20090;-68
2022/06/07 08:08:41;;;;;;;3.35;1.20;;;19.80;63.40;;;;;;4431954;32;20062;-66
2022/06/07 08:11:08;;;;;;;4.45;1.17;;;19.80;63.40;;;;;;4431775;32;20078;-68
2022/06/07 08:13:33;;;;;;;4.97;1.20;;;19.80;63.30;;;;;;4431568;32;20083;-68
2022/06/07 08:16:00;;;;;;;5.40;1.23;;;19.80;63.30;;;;;;4431419;32;20160;-67
2022/06/07 08:18:26;;;;;;;3.65;1.00;;;19.80;63.30;;;;;;4431709;32;20087;-68
2022/06/07 08:20:58;;;;;;;5.50;1.45;;;19.80;63.30;;;;;;4431161;32;20192;-69
2022/06/07 08:23:25;;;;;;;5.22;1.23;;;19.80;63.20;;;;;;4417951;32;20126;-68
2022/06/07 08:25:51;;;;;;;5.07;1.35;;;19.80;63.20;;;;;;4431593;32;20288;-69
2022/06/07 08:28:17;;;;;;;5.45;1.10;;;19.80;63.10;;;;;;4431790;32;20094;-68
2022/06/07 08:30:45;;;;;;;4.60;1.63;;;19.80;63.10;;;;;;4431213;32;20160;-69
2022/06/07 08:38:41;;;;;;;3.85;1.10;;;19.70;62.80;;;;;;4431715;32;20291;-68
2022/06/07 08:41:18;;;;;;;4.30;1.17;;;19.70;62.80;;;;;;4431108;32;20094;-69
2022/06/07 08:43:45;;;;;;;5.88;1.35;;;19.80;62.80;;;;;;4431539;32;20163;-68
2022/06/07 08:46:15;;;;;;;4.70;1.10;;;19.70;62.70;;;;;;4431301;32;20097;-69
2022/06/07 08:48:42;;;;;;;6.65;1.27;;;19.80;62.80;;;;;;4431402;32;20079;-68
2022/06/07 08:51:20;;;;;;;4.32;1.10;;;19.80;62.80;;;;;;4431205;32;20156;-69
2022/06/07 08:53:53;;;;;;;6.95;1.60;;;19.80;62.60;;;;;;4430893;32;20070;-68
2022/06/07 08:56:22;;;;;;;7.68;1.08;;;19.80;62.70;;;;;;4431440;32;20089;-68
2022/06/07 08:58:51;;;;;;;6.07;1.38;;;19.80;62.70;;;;;;4431052;32;20074;-69
2022/06/07 09:01:41;;;;;;;5.03;0.93;;;19.80;62.60;;;;;;4431043;32;20092;-69
2022/06/07 09:04:19;;;;;;;13.80;1.33;;;19.80;62.40;;;;;;4431059;32;20074;-68
2022/06/07 09:06:52;;;;;;;8.20;1.30;;;19.80;63.50;;;;;;4430496;32;20524;-69
2022/06/07 09:09:21;;;;;;;5.28;1.25;;;19.80;62.60;;;;;;4430997;32;20093;-69
2022/06/07 09:12:10;;;;;;;7.45;1.45;;;19.80;62.60;;;;;;4430637;32;20075;-68
2022/06/07 09:14:58;;;;;;;6.20;1.15;;;19.80;62.60;;;;;;4430377;32;20092;-70
2022/06/07 09:17:45;;;;;;;5.55;1.20;;;19.80;62.60;;;;;;4431174;32;20078;-69
2022/06/07 09:20:18;;;;;;;5.00;1.20;;;19.80;62.40;;;;;;4430437;32;20538;-68
2022/06/07 09:23:05;;;;;;;6.25;1.42;;;19.80;62.60;;;;;;4430813;32;20400;-69
2022/06/07 09:25:36;;;;;;;6.32;1.10;;;19.80;62.50;;;;;;4431015;32;20066;-68
2022/06/07 09:28:05;;;;;;;5.45;1.33;;;19.80;62.50;;;;;;4430941;32;20176;-69
2022/06/07 09:30:43;;;;;;;4.88;1.20;;;19.80;62.60;;;;;;4430366;32;20171;-69
2022/06/07 09:33:22;;;;;;;4.35;1.08;;;19.80;62.60;;;;;;4430852;32;20088;-69
2022/06/07 09:35:49;;;;;;;4.35;1.00;;;19.80;62.60;;;;;;4429326;32;20078;-69
2022/06/07 09:38:21;;;;;;;6.22;1.13;;;19.80;62.80;;;;;;4430149;32;20247;-68
2022/06/07 09:40:55;;;;;;;6.63;1.13;;;19.80;62.90;;;;;;4430458;32;20423;-68
2022/06/07 09:43:42;;;;;;;4.65;1.20;;;19.80;62.90;;;;;;4430550;32;20197;-68
2022/06/07 09:46:10;;;;;;;5.32;1.33;;;19.80;62.90;;;;;;4430443;32;20232;-68
2022/06/07 09:48:42;;;;;;;8.20;1.58;;;19.80;63.00;;;;;;4430493;32;20225;-68
2022/06/07 09:51:19;;;;;;;5.53;1.02;;;19.80;63.00;;;;;;4430282;32;20554;-68
2022/06/07 09:53:56;;;;;;;9.15;1.45;;;19.80;63.00;;;;;;4430653;32;20653;-68
2022/06/07 09:56:47;;;;;;;3.45;1.05;;;19.80;63.00;;;;;;4430489;32;20082;-68
2022/06/07 09:59:27;;;;;;;4.93;1.00;;;19.80;63.00;;;;;;4430570;32;20515;-68
2022/06/07 10:02:14;;;;;;;4.13;1.05;;;19.80;63.00;;;;;;4429910;32;20451;-68
2022/06/07 10:04:44;;;;;;;4.97;1.23;;;19.80;63.00;;;;;;4430029;32;20096;-68
2022/06/07 10:07:18;;;;;;;4.88;1.10;;;19.80;63.10;;;;;;4430095;32;20561;-68
2022/06/07 10:10:25;;;;;;;7.13;1.02;;;19.80;63.20;;;;;;4430373;32;20129;-67
2022/06/07 10:12:56;;;;;;;3.95;1.10;;;19.80;62.80;;;;;;4430166;32;20078;-67
2022/06/07 10:15:30;;;;;;;4.45;1.30;;;19.70;63.10;;;;;;4430118;32;20054;-68
2022/06/07 10:18:12;;;;;;;4.95;0.88;;;19.70;63.00;;;;;;4429871;32;20090;-68
2022/06/07 10:21:19;;;;;;;4.28;0.82;;;19.70;63.00;;;;;;4429757;32;20137;-67
2022/06/07 10:24:03;;;;;;;6.07;1.02;;;19.70;63.60;;;;;;4430488;32;20552;-68
2022/06/07 10:26:47;;;;;;;4.03;1.00;;;19.70;62.60;;;;;;4429740;32;20077;-67
2022/06/07 10:29:18;;;;;;;;;;;19.70;62.70;;;;;;4430407;32;20220;-68
2022/06/07 10:32:05;;;;;;;4.53;1.20;;;19.70;62.70;;;;;;4430148;32;19981;-69
2022/06/07 10:34:38;;;;;;;6.80;1.15;;;19.70;62.90;;;;;;4429977;32;20404;-69
2022/06/07 10:37:56;;;;;;;3.40;1.00;;;19.70;62.90;;;;;;4429722;32;20235;-67
2022/06/07 10:40:39;;;;;;;3.75;1.02;;;19.70;62.60;;;;;;4379038;32;20070;-67
2022/06/07 10:43:21;;;;;;;6.05;1.40;;;19.70;62.90;;;;;;4429613;32;20109;-68
2022/06/07 10:45:51;;;;;;;5.30;1.25;;;19.70;62.80;;;;;;4430106;32;20228;-67
2022/06/07 10:48:38;;;;;;;6.72;1.23;;;19.70;62.80;;;;;;4429397;32;20534;-67
2022/06/07 10:54:35;;;;;;;3.78;1.00;;;19.70;62.80;;;;;;4429983;32;20070;-67
2022/06/07 10:57:15;;;;;;;5.53;1.02;;;19.70;62.70;;;;;;4429200;32;20515;-67
2022/06/07 10:59:43;;;;;;;5.50;1.08;;;19.60;62.70;;;;;;4429709;32;20066;-68
2022/06/07 11:02:30;;;;;;;4.55;1.17;;;19.70;62.90;;;;;;4429571;32;20169;-68
2022/06/07 11:10:48;;;;;;;6.68;1.05;;;19.70;63.40;;;;;;4429895;32;20492;-67
2022/06/07 11:13:32;;;;;;;4.20;1.13;;;19.70;63.40;;;;;;4429853;32;20077;-68
2022/06/07 11:15:58;;;;;;;;;;;19.70;63.60;;;;;;4430480;32;20714;-68
2022/06/07 11:18:25;;;;;;;6.38;1.42;;;19.70;63.70;;;;;;4429836;32;20086;-68
2022/06/07 11:21:00;;;;;;;5.15;1.00;;;19.70;63.60;;;;;;4429431;32;20164;-68
2022/06/07 11:23:42;;;;;;;4.82;1.25;;;19.70;63.80;;;;;;4429919;32;20121;-67
2022/06/07 11:26:14;;;;;;;5.38;1.23;;;19.70;64.00;;;;;;4429375;32;20502;-67
2022/06/07 11:28:40;;;;;;;4.22;1.40;;;19.70;64.00;;;;;;4429439;32;20500;-67
2022/06/07 11:31:24;;;;;;;4.80;1.42;;;19.70;64.20;;;;;;4429735;32;20144;-68
2022/06/07 11:33:52;;;;;;;;;;;19.70;64.20;;;;;;4431487;32;20094;-67
2022/06/07 11:36:24;;;;;;;8.20;1.45;;;19.70;64.10;;;;;;4431005;32;19975;-67
2022/06/07 11:38:58;;;;;;;4.55;1.23;;;19.70;64.30;;;;;;4433898;32;20109;-68
2022/06/07 11:41:39;;;;;;;2.80;0.82;;;19.70;64.40;;;;;;4433753;32;20059;-68
2022/06/07 11:44:36;;;;;;;7.60;1.83;;;19.70;64.40;;;;;;4433525;32;20089;-68
2022/06/07 11:47:19;;;;;;;3.25;1.00;;;19.70;64.40;;;;;;4432616;32;20090;-68
2022/06/07 11:49:44;;;;;;;5.95;1.20;;;19.70;64.50;;;;;;4418602;32;20381;-67
2022/06/07 11:52:13;;;;;;;4.72;1.20;;;19.70;64.40;;;;;;4432015;32;20081;-66
2022/06/07 11:54:48;;;;;;;3.95;1.30;;;19.70;64.50;;;;;;4418101;32;20563;-68
2022/06/07 11:57:32;;;;;;;4.82;1.20;;;19.70;64.50;;;;;;4432179;32;20090;-68
2022/06/07 12:00:03;;;;;;;3.92;1.08;;;19.70;64.40;;;;;;4432331;32;20079;-68
2022/06/07 12:02:38;;;;;;;6.95;1.25;;;19.70;64.50;;;;;;4432345;32;20200;-68
2022/06/07 12:05:26;;;;;;;3.75;1.00;;;19.70;64.40;;;;;;4418611;32;20129;-68
2022/06/07 12:08:19;;;;;;;3.97;1.00;;;19.60;64.40;;;;;;4431967;32;20063;-67
2022/06/07 12:11:03;;;;;;;2.28;0.90;;;19.70;64.50;;;;;;4432190;32;20113;-68
2022/06/07 12:13:52;;;;;;;3.28;0.70;;;19.60;64.40;;;;;;4432074;32;20086;-68
2022/06/07 12:16:27;;;;;;;3.47;0.80;;;19.60;64.50;;;;;;4431798;32;20251;-68
2022/06/07 12:18:56;;;;;;;3.33;1.00;;;19.60;64.60;;;;;;4431871;32;20074;-68
2022/06/07 12:21:23;;;;;;;5.40;1.17;;;19.60;64.50;;;;;;4431322;32;20273;-68
2022/06/07 12:23:59;;;;;;;4.38;1.20;;;19.60;64.60;;;;;;4431451;32;20104;-67
2022/06/07 12:26:25;;;;;;;4.15;0.80;;;19.70;64.70;;;;;;4431982;32;20066;-67
2022/06/07 12:28:57;;;;;;;3.72;1.10;;;19.60;64.70;;;;;;4431345;32;20156;-68
2022/06/07 12:31:26;;;;;;;2.83;0.90;;;19.70;64.70;;;;;;4431963;32;20144;-68
2022/06/07 12:33:58;;;;;;;3.47;0.98;;;19.70;64.70;;;;;;4431593;32;20086;-68
2022/06/07 12:36:32;;;;;;;5.68;1.00;;;19.70;64.70;;;;;;4431577;32;20093;-68
2022/06/07 12:39:03;;;;;;;2.78;0.90;;;19.70;64.80;;;;;;4431863;32;20085;-68
2022/06/07 12:41:33;;;;;;;4.95;0.90;;;19.70;64.80;;;;;;4431487;32;20136;-68
2022/06/07 12:44:02;;;;;;;4.30;1.00;;;19.70;64.50;;;;;;4431247;32;20090;-68
2022/06/07 12:46:32;;;;;;;2.03;0.90;;;19.70;64.50;;;;;;4431629;32;20492;-68
2022/06/07 12:48:59;;;;;;;3.30;0.85;;;19.70;64.50;;;;;;4431581;32;20078;-68
2022/06/07 12:51:28;;;;;;;2.25;0.85;;;19.70;64.70;;;;;;4431449;32;20097;-68
2022/06/07 12:54:16;;;;;;;2.50;0.70;;;19.70;64.70;;;;;;4431337;32;20215;-68
2022/06/07 12:56:44;;;;;;;2.83;1.13;;;19.70;64.70;;;;;;4431521;32;20467;-67
2022/06/07 12:59:37;;;;;;;2.22;0.80;;;19.70;64.70;;;;;;4431013;32;20168;-68
2022/06/07 13:02:25;;;;;;;2.78;0.77;;;19.70;64.50;;;;;;4423822;32;20081;-68
2022/06/07 13:04:57;;;;;;;5.35;1.13;;;19.70;64.40;;;;;;4431053;32;20086;-67
2022/06/07 13:07:41;;;;;;;3.42;0.70;;;19.70;64.60;;;;;;4431407;32;20086;-68
2022/06/07 13:10:12;;;;;;;2.22;0.60;;;19.70;64.60;;;;;;4431179;32;20071;-68
2022/06/07 13:12:43;;;;;;;3.03;1.00;;;19.70;64.60;;;;;;4430942;32;20447;-68
2022/06/07 13:15:14;;;;;;;2.67;0.90;;;19.70;64.70;;;;;;4431321;32;20086;-68
2022/06/07 13:18:00;;;;;;;2.38;1.00;;;19.70;64.70;;;;;;4430860;32;20075;-68
2022/06/07 13:20:32;;;;;;;3.08;0.90;;;19.70;64.70;;;;;;4430435;32;20130;-68
2022/06/07 13:22:59;;;;;;;1.30;0.50;;;19.70;64.80;;;;;;4430944;32;20487;-68
2022/06/07 13:25:29;;;;;;;2.38;0.70;;;19.70;64.70;;;;;;4430605;32;20086;-67
2022/06/07 13:28:13;;;;;;;2.88;0.80;;;19.70;64.70;;;;;;4431059;32;20467;-68
2022/06/07 13:30:42;;;;;;;1.92;0.68;;;19.70;64.60;;;;;;4431083;32;20555;-67
2022/06/07 13:33:23;;;;;;;3.50;0.80;;;19.80;64.60;;;;;;4430462;32;20428;-68